createdAt,value
2023-05-15T00:00:48.302Z,22.63
2023-05-15T00:01:48.281Z,22.68
2023-05-15T00:02:48.319Z,22.73
2023-05-15T00:03:48.283Z,22.77
2023-05-15T00:04:48.257Z,22.82
2023-05-15T00:05:48.188Z,22.86
2023-05-15T00:06:48.160Z,22.90
2023-05-15T00:07:48.130Z,22.94
2023-05-15T00:08:48.117Z,22.99
2023-05-15T00:09:48.113Z,23.03
2023-05-15T00:11:01.065Z,23.06
2023-05-15T00:11:48.110Z,23.09
2023-05-15T00:12:48.048Z,23.12
2023-05-15T00:13:48.027Z,23.14
2023-05-15T00:14:48.019Z,23.17
2023-05-15T00:15:48.018Z,23.20
2023-05-15T00:16:47.957Z,23.22
2023-05-15T00:17:48.019Z,23.24
2023-05-15T00:18:47.963Z,23.26
2023-05-15T00:19:47.889Z,23.28
2023-05-15T00:20:47.866Z,23.29
2023-05-15T00:21:47.858Z,23.32
2023-05-15T00:22:47.817Z,23.33
2023-05-15T00:23:47.795Z,23.33
2023-05-15T00:24:47.774Z,23.35
2023-05-15T00:25:47.752Z,23.36
2023-05-15T00:26:47.717Z,23.37
2023-05-15T00:27:47.718Z,23.39
2023-05-15T00:28:47.666Z,23.39
2023-05-15T00:29:47.648Z,23.39
2023-05-15T00:30:47.637Z,23.40
2023-05-15T00:31:47.651Z,23.41
2023-05-15T00:32:47.600Z,23.41
2023-05-15T00:33:47.562Z,23.41
2023-05-15T00:34:47.526Z,23.42
2023-05-15T00:35:47.527Z,23.43
2023-05-15T00:36:47.494Z,23.43
2023-05-15T00:37:47.451Z,23.43
2023-05-15T00:38:47.450Z,23.44
2023-05-15T00:39:47.476Z,23.44
2023-05-15T00:40:47.508Z,23.45
2023-05-15T00:41:47.529Z,23.45
2023-05-15T00:42:47.548Z,23.45
2023-05-15T00:43:47.699Z,23.44
2023-05-15T00:44:47.608Z,23.45
2023-05-15T00:45:47.632Z,23.45
2023-05-15T00:46:47.699Z,23.45
2023-05-15T00:47:47.750Z,23.46
2023-05-15T00:48:47.745Z,23.47
2023-05-15T00:49:47.740Z,23.46
2023-05-15T00:50:47.775Z,23.46
2023-05-15T00:51:47.802Z,23.47
2023-05-15T00:52:47.829Z,23.46
2023-05-15T00:53:47.895Z,23.47
2023-05-15T00:54:47.876Z,23.47
2023-05-15T00:55:47.905Z,23.47
2023-05-15T00:56:47.940Z,23.47
2023-05-15T00:57:47.966Z,23.47
2023-05-15T00:58:47.990Z,23.48
2023-05-15T00:59:48.043Z,23.47
2023-05-15T01:00:48.069Z,23.47
2023-05-15T01:01:48.080Z,23.47
2023-05-15T01:02:48.225Z,23.47
2023-05-15T01:03:48.187Z,23.47
2023-05-15T01:04:48.165Z,23.47
2023-05-15T01:05:48.179Z,23.47
2023-05-15T01:06:48.205Z,23.47
2023-05-15T01:07:48.239Z,23.47
2023-05-15T01:08:48.254Z,23.47
2023-05-15T01:09:48.281Z,23.47
2023-05-15T01:10:48.300Z,23.47
2023-05-15T01:11:48.342Z,23.47
2023-05-15T01:12:48.356Z,23.47
2023-05-15T01:13:48.381Z,23.48
2023-05-15T01:14:48.406Z,23.47
2023-05-15T01:15:48.452Z,23.47
2023-05-15T01:16:48.454Z,23.47
2023-05-15T01:17:48.495Z,23.48
2023-05-15T01:18:48.579Z,23.47
2023-05-15T01:19:48.604Z,23.47
2023-05-15T01:20:48.551Z,23.48
2023-05-15T01:21:48.575Z,23.47
2023-05-15T01:22:48.606Z,23.47
2023-05-15T01:23:48.615Z,23.47
2023-05-15T01:24:48.652Z,23.47
2023-05-15T01:25:48.720Z,23.48
2023-05-15T01:26:48.716Z,23.47
2023-05-15T01:27:48.743Z,23.47
2023-05-15T01:28:48.771Z,23.47
2023-05-15T01:29:48.791Z,23.47
2023-05-15T01:30:48.824Z,23.47
2023-05-15T01:31:48.894Z,23.48
2023-05-15T01:32:48.938Z,23.48
2023-05-15T01:33:48.900Z,23.48
2023-05-15T01:34:48.924Z,23.47
2023-05-15T01:35:48.956Z,23.47
2023-05-15T01:36:48.974Z,23.47
2023-05-15T01:37:49.009Z,23.47
2023-05-15T01:38:49.041Z,23.47
2023-05-15T01:39:49.070Z,23.47
2023-05-15T01:40:49.105Z,23.47
2023-05-15T01:41:49.125Z,23.47
2023-05-15T01:42:49.156Z,23.46
2023-05-15T01:43:49.198Z,23.46
2023-05-15T01:44:49.210Z,23.46
2023-05-15T01:45:49.238Z,23.46
2023-05-15T01:46:49.391Z,23.46
2023-05-15T01:47:49.393Z,23.47
2023-05-15T01:48:49.314Z,23.47
2023-05-15T01:49:49.329Z,23.46
2023-05-15T01:50:49.365Z,23.46
2023-05-15T01:51:49.374Z,23.46
2023-05-15T01:52:49.391Z,23.46
2023-05-15T01:53:49.428Z,23.47
2023-05-15T01:54:49.455Z,23.46
2023-05-15T01:55:49.484Z,23.46
2023-05-15T01:56:49.509Z,23.46
2023-05-15T01:57:49.531Z,23.46
2023-05-15T01:58:49.561Z,23.46
2023-05-15T01:59:49.590Z,23.46
2023-05-15T02:00:49.602Z,23.46
2023-05-15T02:01:49.692Z,23.46
2023-05-15T02:02:49.775Z,23.46
2023-05-15T02:03:49.784Z,23.45
2023-05-15T02:04:49.727Z,23.46
2023-05-15T02:05:49.764Z,23.45
2023-05-15T02:06:49.777Z,23.45
2023-05-15T02:07:49.819Z,23.45
2023-05-15T02:08:49.856Z,23.45
2023-05-15T02:09:49.884Z,23.46
2023-05-15T02:10:49.913Z,23.46
2023-05-15T02:11:49.956Z,23.45
2023-05-15T02:12:49.975Z,23.46
2023-05-15T02:13:49.999Z,23.45
2023-05-15T02:14:50.045Z,23.45
2023-05-15T02:15:50.112Z,23.45
2023-05-15T02:16:50.145Z,23.45
2023-05-15T02:17:50.165Z,23.45
2023-05-15T02:18:50.160Z,23.44
2023-05-15T02:19:50.206Z,23.44
2023-05-15T02:20:50.228Z,23.45
2023-05-15T02:21:50.269Z,23.44
2023-05-15T02:22:50.261Z,23.44
2023-05-15T02:23:50.303Z,23.44
2023-05-15T02:24:50.353Z,23.44
2023-05-15T02:25:50.412Z,23.44
2023-05-15T02:26:50.404Z,23.43
2023-05-15T02:27:50.444Z,23.44
2023-05-15T02:28:50.467Z,23.44
2023-05-15T02:29:50.558Z,23.43
2023-05-15T02:30:50.542Z,23.43
2023-05-15T02:31:50.668Z,23.43
2023-05-15T02:32:50.672Z,23.43
2023-05-15T02:33:50.640Z,23.44
2023-05-15T02:34:50.668Z,23.42
2023-05-15T02:35:50.727Z,23.42
2023-05-15T02:36:50.739Z,23.43
2023-05-15T02:37:50.777Z,23.42
2023-05-15T02:38:50.842Z,23.42
2023-05-15T02:39:50.829Z,23.42
2023-05-15T02:40:50.879Z,23.42
2023-05-15T02:41:50.891Z,23.42
2023-05-15T02:42:50.953Z,23.41
2023-05-15T02:43:50.956Z,23.41
2023-05-15T02:44:50.970Z,23.42
2023-05-15T02:45:51.171Z,23.42
2023-05-15T02:46:51.056Z,23.41
2023-05-15T02:47:51.201Z,23.42
2023-05-15T02:48:51.110Z,23.42
2023-05-15T02:49:51.137Z,23.42
2023-05-15T02:50:51.174Z,23.41
2023-05-15T02:51:51.239Z,23.41
2023-05-15T02:52:51.242Z,23.42
2023-05-15T02:53:51.275Z,23.42
2023-05-15T02:54:51.292Z,23.41
2023-05-15T02:55:51.351Z,23.41
2023-05-15T02:56:51.377Z,23.41
2023-05-15T02:57:51.402Z,23.41
2023-05-15T02:58:51.439Z,23.40
2023-05-15T02:59:51.457Z,23.40
2023-05-15T03:00:51.526Z,23.41
2023-05-15T03:01:51.534Z,23.40
2023-05-15T03:02:51.605Z,23.40
2023-05-15T03:03:51.610Z,23.40
2023-05-15T03:04:51.615Z,23.40
2023-05-15T03:05:51.637Z,23.41
2023-05-15T03:06:52.071Z,23.41
2023-05-15T03:07:52.102Z,23.41
2023-05-15T03:08:52.070Z,23.41
2023-05-15T03:09:52.061Z,23.40
2023-05-15T03:10:52.440Z,23.41
2023-05-15T03:11:52.069Z,23.40
2023-05-15T03:12:52.066Z,23.40
2023-05-15T03:13:52.078Z,23.40
2023-05-15T03:14:52.066Z,23.40
2023-05-15T03:15:52.072Z,23.41
2023-05-15T03:16:52.142Z,23.40
2023-05-15T03:17:52.165Z,23.40
2023-05-15T03:18:52.115Z,23.41
2023-05-15T03:19:52.069Z,23.40
2023-05-15T03:20:52.106Z,23.40
2023-05-15T03:21:52.138Z,23.40
2023-05-15T03:22:52.162Z,23.40
2023-05-15T03:23:52.210Z,23.39
2023-05-15T03:24:52.224Z,23.39
2023-05-15T03:25:52.261Z,23.39
2023-05-15T03:26:52.297Z,23.39
2023-05-15T03:27:52.318Z,23.40
2023-05-15T03:28:52.368Z,23.39
2023-05-15T03:29:52.480Z,23.40
2023-05-15T03:30:52.432Z,23.39
2023-05-15T03:31:52.642Z,23.39
2023-05-15T03:32:52.591Z,23.40
2023-05-15T03:33:52.529Z,23.39
2023-05-15T03:34:52.568Z,23.39
2023-05-15T03:35:52.588Z,23.39
2023-05-15T03:36:52.635Z,23.38
2023-05-15T03:37:52.657Z,23.39
2023-05-15T03:38:53.030Z,23.39
2023-05-15T03:39:53.101Z,23.38
2023-05-15T03:40:53.083Z,23.39
2023-05-15T03:41:53.076Z,23.38
2023-05-15T03:42:53.068Z,23.38
2023-05-15T03:43:53.072Z,23.38
2023-05-15T03:44:53.074Z,23.38
2023-05-15T03:45:53.087Z,23.38
2023-05-15T03:46:53.157Z,23.37
2023-05-15T03:47:53.166Z,23.38
2023-05-15T03:48:53.102Z,23.37
2023-05-15T03:49:53.093Z,23.38
2023-05-15T03:50:53.097Z,23.37
2023-05-15T03:51:53.099Z,23.37
2023-05-15T03:52:53.126Z,23.38
2023-05-15T03:53:53.158Z,23.38
2023-05-15T03:54:53.206Z,23.37
2023-05-15T03:55:53.252Z,23.37
2023-05-15T03:56:53.260Z,23.37
2023-05-15T03:57:53.299Z,23.37
2023-05-15T03:58:53.319Z,23.37
2023-05-15T03:59:53.346Z,23.37
2023-05-15T04:00:53.387Z,23.37
2023-05-15T04:02:04.197Z,23.37
2023-05-15T04:02:53.432Z,23.36
2023-05-15T04:03:53.374Z,23.37
2023-05-15T04:04:53.349Z,23.36
2023-05-15T04:05:53.320Z,23.36
2023-05-15T04:06:53.293Z,23.37
2023-05-15T04:07:53.289Z,23.37
2023-05-15T04:08:53.248Z,23.37
2023-05-15T04:09:53.224Z,23.36
2023-05-15T04:10:53.199Z,23.37
2023-05-15T04:11:53.229Z,23.36
2023-05-15T04:12:53.157Z,23.36
2023-05-15T04:13:53.155Z,23.36
2023-05-15T04:14:53.120Z,23.36
2023-05-15T04:15:53.187Z,23.36
2023-05-15T04:16:53.134Z,23.36
2023-05-15T04:17:53.162Z,23.35
2023-05-15T04:18:53.136Z,23.36
2023-05-15T04:19:53.121Z,23.35
2023-05-15T04:20:53.112Z,23.36
2023-05-15T04:21:53.161Z,23.36
2023-05-15T04:22:53.101Z,23.36
2023-05-15T04:23:53.120Z,23.36
2023-05-15T04:24:53.107Z,23.36
2023-05-15T04:25:53.133Z,23.36
2023-05-15T04:26:53.149Z,23.36
2023-05-15T04:27:53.137Z,23.36
2023-05-15T04:29:03.502Z,23.36
2023-05-15T04:29:53.120Z,23.35
2023-05-15T04:30:53.111Z,23.35
2023-05-15T04:31:53.187Z,23.36
2023-05-15T04:32:53.162Z,23.35
2023-05-15T04:33:53.118Z,23.36
2023-05-15T04:34:53.122Z,23.36
2023-05-15T04:35:53.064Z,23.35
2023-05-15T04:36:52.679Z,23.36
2023-05-15T04:37:52.643Z,23.35
2023-05-15T04:38:52.623Z,23.35
2023-05-15T04:39:52.599Z,23.34
2023-05-15T04:40:52.581Z,23.35
2023-05-15T04:41:52.553Z,23.35
2023-05-15T04:42:52.530Z,23.34
2023-05-15T04:43:52.532Z,23.34
2023-05-15T04:44:52.502Z,23.35
2023-05-15T04:45:52.495Z,23.35
2023-05-15T04:46:52.453Z,23.35
2023-05-15T04:47:52.446Z,23.35
2023-05-15T04:48:52.405Z,23.35
2023-05-15T04:49:52.400Z,23.35
2023-05-15T04:50:52.464Z,23.34
2023-05-15T04:51:52.464Z,23.34
2023-05-15T04:52:52.517Z,23.34
2023-05-15T04:53:52.521Z,23.34
2023-05-15T04:54:52.565Z,23.34
2023-05-15T04:55:52.610Z,23.34
2023-05-15T04:56:52.659Z,23.35
2023-05-15T04:57:52.682Z,23.34
2023-05-15T04:58:53.073Z,23.34
2023-05-15T04:59:53.184Z,23.34
2023-05-15T05:00:53.114Z,23.35
2023-05-15T05:01:53.215Z,23.34
2023-05-15T05:02:53.145Z,23.34
2023-05-15T05:03:53.215Z,23.34
2023-05-15T05:04:53.142Z,23.33
2023-05-15T05:05:53.127Z,23.34
2023-05-15T05:06:53.185Z,23.34
2023-05-15T05:07:53.127Z,23.34
2023-05-15T05:08:53.136Z,23.33
2023-05-15T05:09:53.142Z,23.34
2023-05-15T05:10:53.186Z,23.34
2023-05-15T05:11:53.172Z,23.35
2023-05-15T05:12:53.205Z,23.34
2023-05-15T05:13:53.262Z,23.33
2023-05-15T05:14:53.291Z,23.33
2023-05-15T05:15:53.430Z,23.34
2023-05-15T05:16:53.440Z,23.33
2023-05-15T05:17:53.499Z,23.33
2023-05-15T05:18:53.493Z,23.33
2023-05-15T05:19:53.479Z,23.33
2023-05-15T05:20:53.528Z,23.32
2023-05-15T05:21:53.701Z,23.33
2023-05-15T05:22:53.603Z,23.33
2023-05-15T05:23:53.642Z,23.33
2023-05-15T05:24:53.689Z,23.33
2023-05-15T05:25:53.720Z,23.31
2023-05-15T05:26:54.214Z,23.25
2023-05-15T05:27:53.737Z,23.15
2023-05-15T05:28:54.195Z,23.05
2023-05-15T05:29:54.635Z,22.93
2023-05-15T05:30:53.823Z,22.82
2023-05-15T05:31:54.243Z,22.74
2023-05-15T05:32:54.014Z,22.66
2023-05-15T05:33:54.069Z,22.60
2023-05-15T05:34:53.969Z,22.53
2023-05-15T05:35:54.027Z,22.47
2023-05-15T05:36:54.212Z,22.42
2023-05-15T05:37:54.051Z,22.37
2023-05-15T05:38:54.197Z,22.31
2023-05-15T05:39:54.072Z,22.27
2023-05-15T05:40:54.058Z,22.23
2023-05-15T05:41:54.254Z,22.18
2023-05-15T05:42:54.061Z,22.11
2023-05-15T05:43:54.091Z,22.06
2023-05-15T05:44:54.104Z,22.01
2023-05-15T05:45:55.135Z,21.98
2023-05-15T05:46:54.312Z,21.93
2023-05-15T05:47:54.318Z,21.91
2023-05-15T05:48:55.219Z,21.88
2023-05-15T05:49:55.363Z,21.86
2023-05-15T05:50:54.321Z,21.82
2023-05-15T05:51:55.713Z,21.81
2023-05-15T05:52:54.556Z,21.80
2023-05-15T05:53:54.603Z,21.77
2023-05-15T05:54:54.651Z,21.76
2023-05-15T05:55:54.752Z,21.74
2023-05-15T05:56:55.205Z,21.73
2023-05-15T05:57:55.206Z,21.75
2023-05-15T05:59:02.378Z,21.74
2023-05-15T05:59:54.866Z,21.63
2023-05-15T06:01:59.245Z,21.40
2023-05-15T06:03:10.947Z,21.44
2023-05-15T06:03:58.643Z,21.50
2023-05-15T06:04:56.192Z,21.60
2023-05-15T06:06:02.572Z,21.71
2023-05-15T06:06:55.212Z,21.81
2023-05-15T06:07:58.107Z,21.93
2023-05-15T06:08:56.472Z,22.03
2023-05-15T06:09:54.925Z,22.12
2023-05-15T06:10:54.873Z,22.23
2023-05-15T06:11:55.667Z,22.33
2023-05-15T06:12:54.889Z,22.42
2023-05-15T06:13:54.840Z,22.51
2023-05-15T06:14:55.116Z,22.59
2023-05-15T06:15:55.407Z,22.67
2023-05-15T06:16:54.838Z,22.75
2023-05-15T06:17:54.815Z,22.82
2023-05-15T06:18:58.236Z,22.89
2023-05-15T06:19:54.728Z,22.95
2023-05-15T06:20:54.714Z,23.03
2023-05-15T06:21:54.710Z,23.09
2023-05-15T06:22:57.937Z,23.15
2023-05-15T06:23:54.680Z,23.20
2023-05-15T06:24:54.752Z,23.26
2023-05-15T06:25:54.639Z,23.31
2023-05-15T06:26:54.706Z,23.37
2023-05-15T06:27:57.754Z,23.41
2023-05-15T06:28:54.519Z,23.45
2023-05-15T06:29:54.505Z,23.50
2023-05-15T06:30:54.517Z,23.54
2023-05-15T06:31:54.724Z,23.58
2023-05-15T06:32:54.758Z,23.62
2023-05-15T06:33:54.367Z,23.67
2023-05-15T06:34:54.371Z,23.70
2023-05-15T06:35:54.306Z,23.73
2023-05-15T06:36:54.786Z,23.77
2023-05-15T06:37:54.970Z,23.82
2023-05-15T06:38:54.368Z,23.86
2023-05-15T06:39:54.365Z,23.89
2023-05-15T06:40:54.718Z,23.93
2023-05-15T06:42:02.111Z,23.96
2023-05-15T06:42:54.464Z,23.99
2023-05-15T06:43:57.918Z,24.02
2023-05-15T06:44:54.265Z,24.04
2023-05-15T06:45:54.224Z,24.08
2023-05-15T06:46:54.280Z,24.11
2023-05-15T06:47:54.170Z,24.15
2023-05-15T06:48:54.213Z,24.18
2023-05-15T06:49:55.097Z,24.22
2023-05-15T06:50:54.076Z,24.25
2023-05-15T06:51:57.423Z,24.28
2023-05-15T06:52:53.966Z,24.30
2023-05-15T06:53:54.222Z,24.34
2023-05-15T06:54:54.612Z,24.36
2023-05-15T06:55:53.878Z,24.39
2023-05-15T06:56:55.223Z,24.41
2023-05-15T06:57:53.764Z,24.41
2023-05-15T06:58:53.717Z,24.43
2023-05-15T06:59:56.854Z,24.44
2023-05-15T07:00:55.553Z,24.45
2023-05-15T07:01:53.793Z,24.46
2023-05-15T07:02:53.677Z,24.49
2023-05-15T07:03:53.495Z,24.51
2023-05-15T07:04:53.478Z,24.54
2023-05-15T07:05:53.730Z,24.57
2023-05-15T07:06:56.727Z,24.60
2023-05-15T07:07:53.324Z,24.62
2023-05-15T07:08:53.639Z,24.64
2023-05-15T07:09:53.218Z,24.65
2023-05-15T07:10:53.233Z,24.67
2023-05-15T07:11:53.155Z,24.69
2023-05-15T07:12:53.094Z,24.71
2023-05-15T07:13:53.060Z,24.74
2023-05-15T07:14:53.002Z,24.77
2023-05-15T07:15:53.237Z,24.79
2023-05-15T07:16:52.933Z,24.79
2023-05-15T07:17:52.951Z,24.80
2023-05-15T07:18:52.910Z,24.82
2023-05-15T07:19:52.796Z,24.84
2023-05-15T07:20:53.241Z,24.86
2023-05-15T07:21:52.704Z,24.89
2023-05-15T07:22:56.621Z,24.90
2023-05-15T07:23:52.609Z,24.90
2023-05-15T07:24:52.601Z,24.92
2023-05-15T07:25:53.030Z,24.94
2023-05-15T07:26:58.868Z,24.95
2023-05-15T07:27:52.779Z,24.96
2023-05-15T07:28:52.748Z,24.99
2023-05-15T07:29:52.738Z,25.03
2023-05-15T07:30:52.672Z,25.03
2023-05-15T07:31:52.996Z,25.04
2023-05-15T07:32:59.755Z,25.03
2023-05-15T07:33:53.282Z,25.04
2023-05-15T07:34:53.153Z,25.06
2023-05-15T07:36:53.151Z,25.08
2023-05-15T07:38:07.922Z,25.08
2023-05-15T07:38:52.130Z,25.11
2023-05-15T07:39:52.094Z,25.13
2023-05-15T07:40:51.996Z,25.16
2023-05-15T07:41:52.259Z,25.19
2023-05-15T07:42:52.286Z,25.21
2023-05-15T07:43:53.111Z,25.23
2023-05-15T07:44:51.803Z,25.23
2023-05-15T07:45:51.823Z,25.25
2023-05-15T07:46:51.719Z,25.26
2023-05-15T07:47:51.770Z,25.27
2023-05-15T07:48:51.599Z,25.28
2023-05-15T07:49:51.634Z,25.29
2023-05-15T07:50:51.587Z,25.29
2023-05-15T07:51:51.577Z,25.31
2023-05-15T07:52:51.766Z,25.31
2023-05-15T07:53:51.608Z,25.33
2023-05-15T07:54:51.586Z,25.34
2023-05-15T07:55:51.510Z,25.38
2023-05-15T07:56:52.370Z,25.40
2023-05-15T07:58:07.379Z,25.42
2023-05-15T07:58:51.493Z,25.43
2023-05-15T07:59:51.399Z,25.44
2023-05-15T08:00:51.361Z,25.45
2023-05-15T08:01:51.292Z,25.46
2023-05-15T08:02:51.846Z,25.45
2023-05-15T08:03:51.333Z,25.42
2023-05-15T08:04:51.171Z,25.39
2023-05-15T08:05:58.629Z,25.36
2023-05-15T08:06:51.258Z,25.31
2023-05-15T08:07:51.273Z,25.21
2023-05-15T08:08:50.965Z,25.18
2023-05-15T08:09:51.267Z,25.13
2023-05-15T08:10:51.183Z,25.09
2023-05-15T08:11:50.841Z,25.05
2023-05-15T08:12:51.605Z,25.00
2023-05-15T08:13:50.772Z,24.95
2023-05-15T08:14:50.722Z,24.89
2023-05-15T08:15:53.911Z,24.85
2023-05-15T08:16:50.669Z,24.81
2023-05-15T08:17:50.777Z,24.77
2023-05-15T08:18:50.706Z,24.75
2023-05-15T08:19:50.573Z,24.72
2023-05-15T08:20:50.542Z,24.70
2023-05-15T08:21:50.519Z,24.67
2023-05-15T08:22:50.485Z,24.65
2023-05-15T08:23:50.651Z,24.63
2023-05-15T08:24:50.419Z,24.62
2023-05-15T08:25:50.400Z,24.62
2023-05-15T08:26:51.249Z,24.61
2023-05-15T08:27:50.765Z,24.61
2023-05-15T08:28:50.289Z,24.61
2023-05-15T08:29:50.406Z,24.60
2023-05-15T08:30:50.257Z,24.59
2023-05-15T08:31:50.270Z,24.59
2023-05-15T08:32:50.279Z,24.58
2023-05-15T08:33:50.152Z,24.57
2023-05-15T08:34:50.577Z,24.55
2023-05-15T08:35:50.138Z,24.56
2023-05-15T08:36:50.076Z,24.55
2023-05-15T08:37:50.246Z,24.55
2023-05-15T08:38:50.187Z,24.56
2023-05-15T08:39:50.270Z,24.56
2023-05-15T08:40:50.128Z,24.57
2023-05-15T08:41:50.138Z,24.56
2023-05-15T08:42:50.262Z,24.51
2023-05-15T08:43:50.173Z,24.43
2023-05-15T08:44:50.672Z,24.39
2023-05-15T08:45:57.655Z,24.35
2023-05-15T08:46:50.309Z,24.29
2023-05-15T08:49:50.092Z,24.30
2023-05-15T08:50:57.467Z,24.34
2023-05-15T08:51:50.025Z,24.38
2023-05-15T08:52:50.266Z,24.42
2023-05-15T08:53:50.261Z,24.48
2023-05-15T08:54:50.267Z,24.52
2023-05-15T08:55:49.892Z,24.56
2023-05-15T08:56:49.858Z,24.62
2023-05-15T08:57:50.313Z,24.66
2023-05-15T08:58:49.876Z,24.71
2023-05-15T08:59:49.732Z,24.76
2023-05-15T09:00:50.690Z,24.79
2023-05-15T09:01:49.694Z,24.83
2023-05-15T09:02:49.872Z,24.87
2023-05-15T09:03:49.582Z,24.91
2023-05-15T09:04:49.780Z,24.95
2023-05-15T09:05:49.469Z,24.98
2023-05-15T09:06:49.477Z,25.00
2023-05-15T09:07:49.441Z,25.03
2023-05-15T09:08:49.447Z,25.06
2023-05-15T09:09:49.776Z,25.09
2023-05-15T09:10:49.543Z,25.12
2023-05-15T09:11:49.578Z,25.15
2023-05-15T09:12:49.545Z,25.17
2023-05-15T09:13:50.312Z,25.20
2023-05-15T09:14:49.539Z,25.21
2023-05-15T09:15:49.825Z,25.24
2023-05-15T09:16:49.502Z,25.26
2023-05-15T09:17:49.555Z,25.28
2023-05-15T09:18:49.535Z,25.29
2023-05-15T09:19:49.398Z,25.30
2023-05-15T09:20:49.776Z,25.32
2023-05-15T09:21:49.454Z,25.33
2023-05-15T09:22:49.790Z,25.35
2023-05-15T09:23:49.506Z,25.36
2023-05-15T09:24:49.792Z,25.38
2023-05-15T09:25:50.727Z,25.39
2023-05-15T09:26:50.954Z,25.41
2023-05-15T09:27:49.485Z,25.42
2023-05-15T09:28:49.620Z,25.43
2023-05-15T09:29:49.433Z,25.45
2023-05-15T09:30:49.430Z,25.47
2023-05-15T09:31:49.009Z,25.45
2023-05-15T09:32:56.604Z,25.49
2023-05-15T09:33:49.298Z,25.50
2023-05-15T09:36:09.927Z,25.51
2023-05-15T09:37:15.160Z,25.54
2023-05-15T09:38:11.092Z,25.58
2023-05-15T09:39:07.736Z,25.63
2023-05-15T09:40:08.260Z,25.67
2023-05-15T09:41:07.687Z,25.71
2023-05-15T09:42:07.918Z,25.73
2023-05-15T09:43:18.467Z,25.76
2023-05-15T09:44:07.772Z,25.77
2023-05-15T09:46:25.794Z,25.72
2023-05-15T09:47:26.654Z,25.71
2023-05-15T09:48:26.829Z,25.69
2023-05-15T09:49:27.374Z,25.65
2023-05-15T09:50:26.370Z,25.63
2023-05-15T09:51:26.684Z,25.61
2023-05-15T09:52:26.291Z,25.59
2023-05-15T09:53:26.688Z,25.58
2023-05-15T09:54:26.195Z,25.57
2023-05-15T09:55:26.579Z,25.54
2023-05-15T09:56:26.198Z,25.53
2023-05-15T09:57:26.704Z,25.51
2023-05-15T09:58:26.201Z,25.50
2023-05-15T09:59:26.044Z,25.48
2023-05-15T10:00:26.255Z,25.47
2023-05-15T10:01:26.129Z,25.45
2023-05-15T10:02:26.169Z,25.44
2023-05-15T10:03:26.200Z,25.42
2023-05-15T10:04:26.159Z,25.40
2023-05-15T10:05:39.224Z,25.39
2023-05-15T10:06:26.134Z,25.38
2023-05-15T10:07:26.175Z,25.38
2023-05-15T10:08:26.195Z,25.38
2023-05-15T10:09:26.049Z,25.37
2023-05-15T10:10:26.132Z,25.37
2023-05-15T10:11:26.202Z,25.37
2023-05-15T10:12:25.950Z,25.37
2023-05-15T10:13:26.274Z,25.39
2023-05-15T10:14:25.893Z,25.39
2023-05-15T10:15:25.846Z,25.40
2023-05-15T10:16:25.859Z,25.40
2023-05-15T10:17:25.869Z,25.39
2023-05-15T10:18:26.240Z,25.38
2023-05-15T10:19:25.890Z,25.39
2023-05-15T10:20:25.893Z,25.37
2023-05-15T10:21:25.640Z,25.37
2023-05-15T10:22:25.607Z,25.39
2023-05-15T10:23:25.724Z,25.39
2023-05-15T10:24:25.731Z,25.32
2023-05-15T10:25:25.520Z,25.30
2023-05-15T10:26:28.699Z,25.27
2023-05-15T10:27:25.436Z,25.24
2023-05-15T10:28:25.433Z,25.22
2023-05-15T10:29:25.705Z,25.21
2023-05-15T10:30:25.641Z,25.20
2023-05-15T10:31:25.784Z,25.17
2023-05-15T10:32:25.309Z,25.06
2023-05-15T10:33:25.711Z,24.94
2023-05-15T10:34:26.217Z,24.76
2023-05-15T10:35:25.199Z,24.56
2023-05-15T10:36:25.228Z,24.43
2023-05-15T10:37:25.129Z,24.38
2023-05-15T10:38:25.101Z,24.36
2023-05-15T10:39:25.084Z,24.36
2023-05-15T10:40:25.258Z,24.35
2023-05-15T10:41:25.206Z,24.35
2023-05-15T10:42:25.007Z,24.37
2023-05-15T10:43:25.217Z,24.40
2023-05-15T10:44:24.984Z,24.43
2023-05-15T10:45:25.020Z,24.47
2023-05-15T10:46:25.060Z,24.51
2023-05-15T10:47:25.049Z,24.54
2023-05-15T10:48:25.218Z,24.57
2023-05-15T10:49:25.021Z,24.60
2023-05-15T10:50:25.257Z,24.62
2023-05-15T10:51:25.021Z,24.65
2023-05-15T10:52:25.018Z,24.68
2023-05-15T10:53:25.221Z,24.70
2023-05-15T10:54:24.980Z,24.71
2023-05-15T10:55:24.971Z,24.72
2023-05-15T10:56:25.259Z,24.72
2023-05-15T10:57:24.930Z,24.72
2023-05-15T10:58:24.938Z,24.74
2023-05-15T10:59:24.903Z,24.75
2023-05-15T11:00:25.154Z,24.76
2023-05-15T11:01:25.308Z,24.76
2023-05-15T11:02:24.976Z,24.76
2023-05-15T11:03:26.062Z,24.74
2023-05-15T11:04:24.976Z,24.72
2023-05-15T11:05:24.770Z,24.71
2023-05-15T11:06:24.756Z,24.69
2023-05-15T11:07:24.671Z,24.68
2023-05-15T11:08:24.741Z,24.67
2023-05-15T11:09:27.216Z,24.67
2023-05-15T11:10:24.729Z,24.68
2023-05-15T11:11:24.510Z,24.70
2023-05-15T11:12:24.528Z,24.73
2023-05-15T11:13:24.740Z,24.76
2023-05-15T11:14:24.980Z,24.79
2023-05-15T11:15:24.428Z,24.81
2023-05-15T11:16:24.385Z,24.83
2023-05-15T11:17:24.342Z,24.87
2023-05-15T11:18:28.024Z,24.90
2023-05-15T11:19:24.222Z,24.92
2023-05-15T11:20:24.697Z,24.96
2023-05-15T11:21:24.244Z,24.98
2023-05-15T11:22:24.162Z,25.00
2023-05-15T11:23:27.954Z,25.04
2023-05-15T11:24:24.011Z,25.09
2023-05-15T11:25:23.972Z,25.13
2023-05-15T11:26:24.248Z,25.20
2023-05-15T11:27:23.890Z,25.25
2023-05-15T11:28:23.846Z,25.31
2023-05-15T11:29:24.231Z,25.36
2023-05-15T11:30:23.790Z,25.41
2023-05-15T11:31:23.769Z,25.46
2023-05-15T11:32:24.295Z,25.50
2023-05-15T11:33:23.654Z,25.54
2023-05-15T11:34:23.730Z,25.60
2023-05-15T11:35:23.521Z,25.61
2023-05-15T11:36:23.445Z,25.63
2023-05-15T11:37:23.724Z,25.67
2023-05-15T11:38:23.450Z,25.69
2023-05-15T11:39:23.724Z,25.71
2023-05-15T11:40:23.562Z,25.74
2023-05-15T11:41:23.194Z,25.76
2023-05-15T11:42:23.318Z,25.78
2023-05-15T11:43:23.095Z,25.80
2023-05-15T11:44:23.248Z,25.82
2023-05-15T11:45:22.980Z,25.83
2023-05-15T11:46:23.009Z,25.85
2023-05-15T11:47:22.970Z,25.86
2023-05-15T11:48:22.920Z,25.88
2023-05-15T11:49:23.235Z,25.90
2023-05-15T11:50:23.113Z,25.90
2023-05-15T11:51:22.797Z,25.92
2023-05-15T11:52:22.784Z,25.91
2023-05-15T11:53:22.766Z,25.91
2023-05-15T11:54:23.279Z,25.94
2023-05-15T11:55:22.754Z,25.97
2023-05-15T11:56:22.799Z,26.01
2023-05-15T11:57:22.756Z,26.05
2023-05-15T11:58:22.757Z,26.07
2023-05-15T11:59:23.362Z,26.11
2023-05-15T12:00:22.960Z,26.13
2023-05-15T12:01:22.747Z,26.16
2023-05-15T12:02:22.768Z,26.19
2023-05-15T12:03:22.798Z,26.23
2023-05-15T12:04:23.047Z,26.27
2023-05-15T12:05:23.720Z,26.30
2023-05-15T12:06:22.716Z,26.33
2023-05-15T12:07:22.714Z,26.36
2023-05-15T12:08:22.693Z,26.40
2023-05-15T12:09:23.738Z,26.43
2023-05-15T12:10:22.855Z,26.44
2023-05-15T12:11:22.668Z,26.47
2023-05-15T12:12:22.638Z,26.48
2023-05-15T12:13:22.631Z,26.51
2023-05-15T12:14:22.745Z,26.51
2023-05-15T12:15:22.567Z,26.54
2023-05-15T12:16:22.637Z,26.57
2023-05-15T12:17:22.532Z,26.60
2023-05-15T12:18:22.504Z,26.63
2023-05-15T12:19:22.865Z,26.65
2023-05-15T12:20:22.456Z,26.68
2023-05-15T12:21:22.435Z,26.71
2023-05-15T12:22:22.411Z,26.74
2023-05-15T12:23:22.371Z,26.76
2023-05-15T12:24:23.237Z,26.78
2023-05-15T12:25:22.377Z,26.80
2023-05-15T12:26:22.302Z,26.82
2023-05-15T12:27:22.389Z,26.85
2023-05-15T12:28:22.273Z,26.86
2023-05-15T12:29:22.271Z,26.87
2023-05-15T12:30:22.130Z,26.91
2023-05-15T12:31:22.364Z,26.93
2023-05-15T12:32:22.092Z,26.95
2023-05-15T12:33:22.274Z,26.98
2023-05-15T12:34:22.075Z,26.99
2023-05-15T12:35:21.967Z,27.02
2023-05-15T12:36:22.754Z,27.04
2023-05-15T12:37:21.911Z,27.06
2023-05-15T12:38:21.824Z,27.08
2023-05-15T12:39:21.783Z,27.09
2023-05-15T12:40:21.758Z,27.10
2023-05-15T12:41:21.684Z,27.11
2023-05-15T12:42:21.691Z,27.10
2023-05-15T12:43:21.589Z,27.11
2023-05-15T12:44:21.587Z,27.13
2023-05-15T12:45:21.762Z,27.15
2023-05-15T12:46:21.457Z,27.18
2023-05-15T12:47:21.370Z,27.19
2023-05-15T12:48:21.327Z,27.20
2023-05-15T12:49:21.355Z,27.20
2023-05-15T12:50:21.194Z,27.23
2023-05-15T12:51:21.135Z,27.23
2023-05-15T12:52:21.087Z,27.24
2023-05-15T12:53:21.016Z,27.25
2023-05-15T12:54:21.283Z,27.27
2023-05-15T12:55:21.265Z,27.28
2023-05-15T12:56:20.842Z,27.30
2023-05-15T12:57:20.790Z,27.29
2023-05-15T12:58:20.765Z,27.27
2023-05-15T12:59:20.667Z,27.24